Terminal Aerodrome Forecast
Issued by NWS

Home | Current Version | Previous Version | Text Only | Print | Product List | Glossary On
Versions: 1 2 3 4 5 6 7 8 9 10 11 12 13 14
373
FTUS45 KPSR 192326
TAFBLH
TAF
KBLH 192326Z 2000/2024 23014G28KT P6SM SCT050 BKN060
     FM200300 21012KT P6SM SCT120 BKN250
     FM202000 20020G28KT P6SM SCT050 OVC080=

USA.gov is the U.S. government's official web portal to all federal, state and local government web resources and services.